Terminal Aerodrome Forecast
Issued by NWS Lubbock, TX

Home | Current Version | Previous Version | Text Only | Print | Product List | Glossary On
Versions: 1 2 3 4 5 6 7 8 9 10 11 12 13 14 15 16
000
FTUS44 KLUB 230941 AAC
TAFLBB
TAF AMD
KLBB 230941Z 2310/2406 17019G30KT P6SM FEW006 BKN014
     FM231100 18017KT P6SM SCT015
     FM231700 18025G35KT 6SM BLDU FEW050 SCT150 SCT250 PROB30
      2400/2403 TSRA BKN050CB=

USA.gov is the U.S. government's official web portal to all federal, state and local government web resources and services.